Time;durP1;ratioP1;P1;durP2;ratioP2;P2;SDS_P1;SDS_P2;PMS_P1;PMS_P2;Temp;Humidity;BMP_temperature;BMP_pressure;BME280_temperature;BME280_humidity;BME280_pressure;Samples;Min_cycle;Max_cycle;Signal;HPM_P1;HPM_P2
2021/01/05 00:00:35;;;;;;;;;;;20.10;27.20;;;;;;491997;240;1351;-70
2021/01/05 00:02:36;;;;;;;;;;;20.10;27.20;;;;;;492054;240;1120;-70
2021/01/05 00:04:37;;;;;;;;;;;20.10;27.20;;;;;;492111;240;1046;-70
2021/01/05 00:06:39;;;;;;;;;;;20.10;27.20;;;;;;492073;240;1187;-70
2021/01/05 00:08:40;;;;;;;;;;;20.10;27.10;;;;;;492046;240;935;-70
2021/01/05 00:10:41;;;;;;;;;;;20.10;27.10;;;;;;492087;240;2183;-70
2021/01/05 00:12:43;;;;;;;;;;;20.20;27.10;;;;;;492057;240;1089;-70
2021/01/05 00:14:44;;;;;;;;;;;20.20;27.10;;;;;;492115;240;1172;-70
2021/01/05 00:16:45;;;;;;;;;;;20.30;27.10;;;;;;492085;240;919;-70
2021/01/05 00:18:46;;;;;;;;;;;20.20;27.00;;;;;;492055;240;1085;-70
2021/01/05 00:20:48;;;;;;;;;;;20.20;27.10;;;;;;492032;240;1113;-70
2021/01/05 00:22:49;;;;;;;;;;;20.20;27.00;;;;;;492037;240;1046;-70
2021/01/05 00:24:50;;;;;;;;;;;20.20;27.00;;;;;;492034;240;1080;-70
2021/01/05 00:26:51;;;;;;;;;;;20.20;27.00;;;;;;492043;240;961;-70
2021/01/05 00:28:53;;;;;;;;;;;20.20;27.00;;;;;;492161;240;1229;-70
2021/01/05 00:30:54;;;;;;;;;;;20.20;27.00;;;;;;492019;240;2174;-70
2021/01/05 00:32:55;;;;;;;;;;;20.20;27.00;;;;;;492098;240;973;-70
2021/01/05 00:34:57;;;;;;;;;;;20.20;26.90;;;;;;492063;240;1252;-70
2021/01/05 00:36:58;;;;;;;;;;;20.20;27.00;;;;;;492129;240;927;-70
2021/01/05 00:38:59;;;;;;;;;;;20.20;27.00;;;;;;492096;240;953;-70
2021/01/05 00:41:01;;;;;;;;;;;20.20;27.00;;;;;;492089;240;984;-70
2021/01/05 00:43:02;;;;;;;;;;;20.20;27.10;;;;;;492103;240;933;-70
2021/01/05 00:45:03;;;;;;;;;;;20.20;27.00;;;;;;492043;238;1292;-70
2021/01/05 00:47:04;;;;;;;;;;;20.10;26.90;;;;;;492104;240;937;-70
2021/01/05 00:49:06;;;;;;;;;;;20.20;27.00;;;;;;492063;240;2200;-70
2021/01/05 00:51:07;;;;;;;;;;;20.20;26.90;;;;;;492119;240;944;-70
2021/01/05 00:53:09;;;;;;;;;;;20.20;26.90;;;;;;492118;240;936;-70
2021/01/05 00:55:11;;;;;;;;;;;20.20;26.80;;;;;;492175;240;940;-70
2021/01/05 00:57:11;;;;;;;;;;;20.30;26.90;;;;;;492140;240;1557;-70
2021/01/05 00:59:12;;;;;;;;;;;20.30;26.90;;;;;;492061;240;1072;-70
2021/01/05 01:01:14;;;;;;;;;;;20.30;26.90;;;;;;492090;240;1161;-70
2021/01/05 01:03:15;;;;;;;;;;;20.20;26.90;;;;;;492017;240;1181;-70
2021/01/05 01:05:16;;;;;;;;;;;20.20;26.90;;;;;;492090;240;949;-70
2021/01/05 01:07:18;;;;;;;;;;;20.20;26.90;;;;;;492088;240;934;-70
2021/01/05 01:09:19;;;;;;;;;;;20.20;26.90;;;;;;492081;240;2144;-70
2021/01/05 01:11:20;;;;;;;;;;;20.20;26.90;;;;;;492097;240;962;-70
2021/01/05 01:13:21;;;;;;;;;;;20.20;26.90;;;;;;492083;240;969;-70
2021/01/05 01:15:23;;;;;;;;;;;20.20;26.90;;;;;;492133;240;1150;-70
2021/01/05 01:17:24;;;;;;;;;;;20.20;26.90;;;;;;492118;240;928;-70
2021/01/05 01:19:25;;;;;;;;;;;20.10;26.90;;;;;;492192;240;1042;-70
2021/01/05 01:21:26;;;;;;;;;;;20.10;26.90;;;;;;492060;240;1049;-70
2021/01/05 01:23:28;;;;;;;;;;;20.10;26.90;;;;;;492163;240;919;-70
2021/01/05 01:25:29;;;;;;;;;;;20.10;26.90;;;;;;492097;240;905;-70
2021/01/05 01:27:30;;;;;;;;;;;20.20;26.90;;;;;;492083;240;941;-70
2021/01/05 01:29:32;;;;;;;;;;;20.20;26.80;;;;;;492112;240;2195;-70
2021/01/05 01:31:33;;;;;;;;;;;20.20;26.80;;;;;;492089;240;1190;-70
2021/01/05 01:33:34;;;;;;;;;;;20.20;26.90;;;;;;492111;240;960;-70
2021/01/05 01:35:36;;;;;;;;;;;20.20;26.90;;;;;;492077;240;901;-70
2021/01/05 01:37:37;;;;;;;;;;;20.20;26.90;;;;;;492152;240;950;-70
2021/01/05 01:39:38;;;;;;;;;;;20.20;26.90;;;;;;492079;240;874;-70
2021/01/05 01:41:39;;;;;;;;;;;20.20;26.80;;;;;;492097;240;968;-70
2021/01/05 01:43:41;;;;;;;;;;;20.20;26.90;;;;;;492044;240;955;-70
2021/01/05 01:45:42;;;;;;;;;;;20.20;26.80;;;;;;492021;240;1125;-70
2021/01/05 01:47:43;;;;;;;;;;;20.30;26.80;;;;;;492102;240;928;-70
2021/01/05 01:49:45;;;;;;;;;;;20.20;26.70;;;;;;492106;240;2187;-70
2021/01/05 01:51:46;;;;;;;;;;;20.20;26.70;;;;;;492124;240;975;-70
2021/01/05 01:53:47;;;;;;;;;;;20.20;26.70;;;;;;492082;240;1163;-70
2021/01/05 01:55:48;;;;;;;;;;;20.20;26.70;;;;;;492088;239;1217;-70
2021/01/05 01:57:50;;;;;;;;;;;20.20;26.70;;;;;;492069;240;1174;-70
2021/01/05 01:59:51;;;;;;;;;;;20.20;26.70;;;;;;492110;240;1164;-70
2021/01/05 02:01:52;;;;;;;;;;;20.20;26.70;;;;;;492059;240;1254;-70
2021/01/05 02:03:54;;;;;;;;;;;20.20;26.80;;;;;;492125;240;1126;-70
2021/01/05 02:05:55;;;;;;;;;;;20.20;26.70;;;;;;492188;240;1023;-70
2021/01/05 02:07:57;;;;;;;;;;;20.20;26.70;;;;;;492108;240;973;-70
2021/01/05 02:09:58;;;;;;;;;;;20.30;26.70;;;;;;492143;240;2172;-70
2021/01/05 02:11:59;;;;;;;;;;;20.20;26.70;;;;;;492052;240;952;-70
2021/01/05 02:14:01;;;;;;;;;;;20.20;26.70;;;;;;492147;240;1039;-70
2021/01/05 02:16:02;;;;;;;;;;;20.20;26.70;;;;;;492097;240;1097;-70
2021/01/05 02:18:03;;;;;;;;;;;20.20;26.60;;;;;;492116;240;961;-70
2021/01/05 02:20:04;;;;;;;;;;;20.20;26.60;;;;;;492111;240;1195;-70
2021/01/05 02:22:06;;;;;;;;;;;20.30;26.60;;;;;;492110;240;986;-70
2021/01/05 02:24:08;;;;;;;;;;;20.30;26.60;;;;;;492187;240;885;-70
2021/01/05 02:26:10;;;;;;;;;;;20.20;26.60;;;;;;492092;240;953;-70
2021/01/05 02:28:11;;;;;;;;;;;20.20;26.70;;;;;;492075;240;1092;-70
2021/01/05 02:30:12;;;;;;;;;;;20.20;26.70;;;;;;492144;240;2188;-70
2021/01/05 02:32:14;;;;;;;;;;;20.20;26.70;;;;;;492116;240;1201;-70
2021/01/05 02:34:15;;;;;;;;;;;20.20;26.70;;;;;;492140;240;912;-71
2021/01/05 02:36:16;;;;;;;;;;;20.10;26.70;;;;;;492091;240;968;-70
2021/01/05 02:38:17;;;;;;;;;;;20.10;26.70;;;;;;492096;240;928;-70
2021/01/05 02:40:19;;;;;;;;;;;20.10;26.70;;;;;;492092;240;1107;-70
2021/01/05 02:42:20;;;;;;;;;;;20.10;26.70;;;;;;492139;240;953;-70
2021/01/05 02:44:21;;;;;;;;;;;20.10;26.70;;;;;;492125;240;951;-70
2021/01/05 02:46:22;;;;;;;;;;;20.20;26.70;;;;;;492105;240;1131;-70
2021/01/05 02:48:24;;;;;;;;;;;20.20;26.70;;;;;;492109;240;968;-70
2021/01/05 02:50:26;;;;;;;;;;;20.20;26.70;;;;;;492068;240;2136;-70
2021/01/05 02:52:27;;;;;;;;;;;20.20;26.60;;;;;;492074;240;952;-70
2021/01/05 02:54:28;;;;;;;;;;;20.20;26.60;;;;;;492135;240;944;-70
2021/01/05 02:56:29;;;;;;;;;;;20.20;26.60;;;;;;492197;240;916;-70
2021/01/05 02:58:31;;;;;;;;;;;20.20;26.60;;;;;;492130;240;1138;-70
2021/01/05 03:00:32;;;;;;;;;;;20.20;26.60;;;;;;492088;240;1273;-70
2021/01/05 03:02:33;;;;;;;;;;;20.10;26.60;;;;;;492082;240;1205;-70
2021/01/05 03:04:35;;;;;;;;;;;20.20;26.70;;;;;;492097;240;1113;-70
2021/01/05 03:06:36;;;;;;;;;;;20.20;26.70;;;;;;492100;240;977;-70
2021/01/05 03:08:37;;;;;;;;;;;20.10;26.60;;;;;;492068;240;1020;-70
2021/01/05 03:10:38;;;;;;;;;;;20.20;26.70;;;;;;492079;240;2224;-70
2021/01/05 03:12:40;;;;;;;;;;;20.20;26.60;;;;;;492088;240;1217;-70
2021/01/05 03:14:41;;;;;;;;;;;20.20;26.60;;;;;;492077;240;1091;-70
2021/01/05 03:16:42;;;;;;;;;;;20.10;26.60;;;;;;492039;240;1254;-70
2021/01/05 03:18:43;;;;;;;;;;;20.10;26.60;;;;;;492039;240;989;-70
2021/01/05 03:20:45;;;;;;;;;;;20.20;26.70;;;;;;492019;240;909;-70
2021/01/05 03:22:46;;;;;;;;;;;20.20;26.60;;;;;;492075;240;1053;-70
2021/01/05 03:24:47;;;;;;;;;;;20.20;26.60;;;;;;492129;240;925;-70
2021/01/05 03:26:49;;;;;;;;;;;20.20;26.60;;;;;;492068;240;939;-70
2021/01/05 03:28:50;;;;;;;;;;;20.20;26.60;;;;;;492082;240;1199;-70
2021/01/05 03:30:51;;;;;;;;;;;20.20;26.60;;;;;;492047;240;2184;-70
2021/01/05 03:32:52;;;;;;;;;;;20.20;26.70;;;;;;492103;240;1137;-70
2021/01/05 03:34:54;;;;;;;;;;;20.20;26.60;;;;;;492118;240;957;-70
2021/01/05 03:36:55;;;;;;;;;;;20.10;26.60;;;;;;492095;240;997;-70
2021/01/05 03:38:56;;;;;;;;;;;20.20;26.70;;;;;;492129;240;920;-70
2021/01/05 03:40:58;;;;;;;;;;;20.10;26.70;;;;;;492028;240;1015;-70
2021/01/05 03:42:59;;;;;;;;;;;20.10;26.70;;;;;;492084;240;931;-71
2021/01/05 03:45:00;;;;;;;;;;;20.20;26.70;;;;;;492074;240;935;-70
2021/01/05 03:47:01;;;;;;;;;;;20.20;26.70;;;;;;492044;240;1162;-70
2021/01/05 03:49:03;;;;;;;;;;;20.10;26.60;;;;;;492123;240;910;-70
2021/01/05 03:51:04;;;;;;;;;;;20.20;26.70;;;;;;492061;240;2124;-70
2021/01/05 03:53:05;;;;;;;;;;;20.10;26.70;;;;;;492119;240;916;-70
2021/01/05 03:55:07;;;;;;;;;;;20.20;26.70;;;;;;492038;240;1150;-70
2021/01/05 03:57:08;;;;;;;;;;;20.20;26.70;;;;;;492086;240;1004;-70
2021/01/05 03:59:09;;;;;;;;;;;20.20;26.70;;;;;;492096;240;947;-70
2021/01/05 04:01:10;;;;;;;;;;;20.20;26.70;;;;;;492103;240;924;-70
2021/01/05 04:03:12;;;;;;;;;;;20.20;26.60;;;;;;492016;240;1077;-70
2021/01/05 04:05:13;;;;;;;;;;;20.20;26.60;;;;;;492074;240;901;-70
2021/01/05 04:07:14;;;;;;;;;;;20.20;26.60;;;;;;492070;240;944;-70
2021/01/05 04:09:16;;;;;;;;;;;20.20;26.70;;;;;;492164;240;905;-70
2021/01/05 04:11:17;;;;;;;;;;;20.20;26.60;;;;;;492035;240;2188;-70
2021/01/05 04:13:19;;;;;;;;;;;20.20;26.60;;;;;;492020;240;1022;-70
2021/01/05 04:15:20;;;;;;;;;;;20.10;26.70;;;;;;492065;240;996;-70
2021/01/05 04:17:21;;;;;;;;;;;20.10;26.60;;;;;;492039;240;1162;-70
2021/01/05 04:19:22;;;;;;;;;;;20.20;26.70;;;;;;492076;240;943;-70
2021/01/05 04:21:24;;;;;;;;;;;20.20;26.60;;;;;;492150;240;973;-70
2021/01/05 04:23:25;;;;;;;;;;;20.20;26.60;;;;;;492118;240;952;-70
2021/01/05 04:25:26;;;;;;;;;;;20.20;26.60;;;;;;492084;240;1208;-70
2021/01/05 04:27:28;;;;;;;;;;;20.20;26.70;;;;;;492242;240;1161;-70
2021/01/05 04:29:29;;;;;;;;;;;20.10;26.70;;;;;;492116;240;958;-70
2021/01/05 04:31:30;;;;;;;;;;;20.10;26.70;;;;;;492080;240;2176;-70
2021/01/05 04:33:31;;;;;;;;;;;20.00;26.70;;;;;;492000;240;1204;-70
2021/01/05 04:35:33;;;;;;;;;;;20.00;26.70;;;;;;492065;240;1034;-70
2021/01/05 04:37:34;;;;;;;;;;;20.10;26.80;;;;;;492068;240;1069;-70
2021/01/05 04:39:35;;;;;;;;;;;20.10;26.70;;;;;;492189;240;914;-70
2021/01/05 04:41:37;;;;;;;;;;;20.10;26.70;;;;;;492092;240;910;-70
2021/01/05 04:43:38;;;;;;;;;;;20.10;26.70;;;;;;492023;240;1022;-70
2021/01/05 04:45:39;;;;;;;;;;;20.10;26.70;;;;;;492124;240;960;-70
2021/01/05 04:47:40;;;;;;;;;;;20.10;26.70;;;;;;492130;240;1142;-70
2021/01/05 04:49:42;;;;;;;;;;;20.00;26.70;;;;;;492175;240;1041;-70
2021/01/05 04:51:43;;;;;;;;;;;20.10;26.80;;;;;;492068;240;2175;-70
2021/01/05 04:53:44;;;;;;;;;;;20.00;26.70;;;;;;492058;240;1327;-70
2021/01/05 04:55:46;;;;;;;;;;;20.00;26.80;;;;;;492113;240;1093;-70
2021/01/05 04:57:47;;;;;;;;;;;20.00;26.80;;;;;;492117;240;1010;-70
2021/01/05 04:59:48;;;;;;;;;;;20.00;26.80;;;;;;492132;240;925;-70
2021/01/05 05:01:49;;;;;;;;;;;20.00;26.80;;;;;;492081;240;1114;-70
2021/01/05 05:03:51;;;;;;;;;;;19.90;26.80;;;;;;492123;240;1194;-70
2021/01/05 05:05:52;;;;;;;;;;;20.00;26.80;;;;;;492082;240;1103;-70
2021/01/05 05:07:53;;;;;;;;;;;19.90;26.80;;;;;;492138;240;1086;-70
2021/01/05 05:09:55;;;;;;;;;;;20.00;26.80;;;;;;491916;240;903;-70
2021/01/05 05:11:56;;;;;;;;;;;20.00;26.80;;;;;;491734;240;2201;-70
2021/01/05 05:13:59;;;;;;;;;;;20.10;26.70;;;;;;491835;240;960;-70
2021/01/05 05:15:59;;;;;;;;;;;20.10;26.70;;;;;;491758;242;1409;-70
2021/01/05 05:18:00;;;;;;;;;;;20.00;26.70;;;;;;491766;240;1127;-70
2021/01/05 05:20:01;;;;;;;;;;;20.00;26.70;;;;;;491850;240;1078;-70
2021/01/05 05:22:02;;;;;;;;;;;20.00;26.70;;;;;;491792;240;938;-70
2021/01/05 05:24:04;;;;;;;;;;;20.00;26.80;;;;;;491786;240;982;-70
2021/01/05 05:26:05;;;;;;;;;;;20.00;26.80;;;;;;491806;240;937;-70
2021/01/05 05:28:06;;;;;;;;;;;20.00;26.70;;;;;;491784;240;1055;-70
2021/01/05 05:30:07;;;;;;;;;;;20.00;26.70;;;;;;491833;240;942;-70
2021/01/05 05:32:09;;;;;;;;;;;20.10;26.70;;;;;;491782;240;2125;-70
2021/01/05 05:34:10;;;;;;;;;;;20.10;26.70;;;;;;491853;240;1152;-70
2021/01/05 05:36:11;;;;;;;;;;;20.00;26.70;;;;;;491818;240;1041;-70
2021/01/05 05:38:13;;;;;;;;;;;20.00;26.80;;;;;;491795;240;1030;-70
2021/01/05 05:40:14;;;;;;;;;;;20.00;26.80;;;;;;491804;240;942;-70
2021/01/05 05:42:15;;;;;;;;;;;20.00;26.80;;;;;;491737;240;1091;-70
2021/01/05 05:44:17;;;;;;;;;;;20.00;26.70;;;;;;491907;240;1104;-70
2021/01/05 05:46:18;;;;;;;;;;;20.00;26.80;;;;;;491796;240;963;-70
2021/01/05 05:48:19;;;;;;;;;;;20.00;26.80;;;;;;491910;240;1421;-70
2021/01/05 05:50:20;;;;;;;;;;;20.00;26.80;;;;;;491788;240;1235;-70
2021/01/05 05:52:22;;;;;;;;;;;20.00;26.80;;;;;;491862;240;2132;-70
2021/01/05 05:54:23;;;;;;;;;;;20.10;26.70;;;;;;491801;240;952;-70
2021/01/05 05:56:24;;;;;;;;;;;20.00;26.70;;;;;;491768;240;950;-70
2021/01/05 05:58:26;;;;;;;;;;;20.00;26.70;;;;;;491788;240;922;-70
2021/01/05 06:00:27;;;;;;;;;;;19.90;26.70;;;;;;491790;240;929;-70
2021/01/05 06:02:28;;;;;;;;;;;19.90;26.70;;;;;;491772;240;983;-70
2021/01/05 06:04:30;;;;;;;;;;;20.00;26.80;;;;;;491868;240;1133;-70
2021/01/05 06:06:31;;;;;;;;;;;20.00;26.70;;;;;;491795;240;975;-70
2021/01/05 06:08:32;;;;;;;;;;;20.00;26.70;;;;;;491792;240;1032;-70
2021/01/05 06:10:34;;;;;;;;;;;20.00;26.70;;;;;;491782;240;981;-70
2021/01/05 06:12:35;;;;;;;;;;;20.00;26.70;;;;;;491861;240;2126;-70
2021/01/05 06:14:36;;;;;;;;;;;20.00;26.70;;;;;;491748;240;947;-70
2021/01/05 06:16:37;;;;;;;;;;;20.00;26.60;;;;;;491792;240;928;-70
2021/01/05 06:18:39;;;;;;;;;;;20.10;26.60;;;;;;491917;238;1301;-70
2021/01/05 06:20:40;;;;;;;;;;;20.00;26.60;;;;;;491776;240;1057;-70
2021/01/05 06:22:41;;;;;;;;;;;20.00;26.70;;;;;;491752;240;1062;-70
2021/01/05 06:24:43;;;;;;;;;;;20.00;26.70;;;;;;491760;240;951;-70
2021/01/05 06:26:44;;;;;;;;;;;20.00;26.70;;;;;;491778;240;1023;-70
2021/01/05 06:28:45;;;;;;;;;;;20.10;26.60;;;;;;491828;240;1065;-70
2021/01/05 06:30:47;;;;;;;;;;;20.10;26.60;;;;;;491806;240;1020;-70
2021/01/05 06:32:48;;;;;;;;;;;20.00;26.60;;;;;;491808;240;2200;-70
2021/01/05 06:34:49;;;;;;;;;;;20.00;26.60;;;;;;491759;240;1157;-70
2021/01/05 06:36:50;;;;;;;;;;;20.00;26.60;;;;;;491837;240;934;-70
2021/01/05 06:38:52;;;;;;;;;;;20.10;26.60;;;;;;491813;240;913;-70
2021/01/05 06:40:53;;;;;;;;;;;20.10;26.60;;;;;;491773;240;1086;-70
2021/01/05 06:42:54;;;;;;;;;;;20.00;26.50;;;;;;491761;240;977;-70
2021/01/05 06:44:55;;;;;;;;;;;20.00;26.50;;;;;;491747;240;1069;-70
2021/01/05 06:46:57;;;;;;;;;;;20.00;26.60;;;;;;491809;240;971;-70
2021/01/05 06:48:58;;;;;;;;;;;20.00;26.60;;;;;;491767;240;1159;-70
2021/01/05 06:50:59;;;;;;;;;;;20.00;26.60;;;;;;491746;240;912;-70
2021/01/05 06:53:00;;;;;;;;;;;20.00;26.60;;;;;;491689;240;2191;-70
2021/01/05 06:55:02;;;;;;;;;;;20.00;26.60;;;;;;491767;240;924;-70
2021/01/05 06:57:03;;;;;;;;;;;20.00;26.60;;;;;;491763;240;1111;-70
2021/01/05 06:59:04;;;;;;;;;;;20.00;26.60;;;;;;491791;240;973;-70
2021/01/05 07:01:06;;;;;;;;;;;20.00;26.60;;;;;;491704;240;944;-70
2021/01/05 07:03:07;;;;;;;;;;;20.00;26.60;;;;;;491773;240;1056;-70
2021/01/05 07:05:08;;;;;;;;;;;20.00;26.60;;;;;;491759;240;1151;-70
2021/01/05 07:07:09;;;;;;;;;;;20.00;26.60;;;;;;491707;240;1090;-70
2021/01/05 07:09:11;;;;;;;;;;;19.90;26.60;;;;;;491743;240;941;-70
2021/01/05 07:11:12;;;;;;;;;;;19.90;26.70;;;;;;491820;240;2146;-70
2021/01/05 07:13:13;;;;;;;;;;;19.90;26.70;;;;;;491723;240;1080;-70
2021/01/05 07:15:14;;;;;;;;;;;19.90;26.70;;;;;;491752;240;936;-70
2021/01/05 07:17:16;;;;;;;;;;;20.00;26.70;;;;;;491779;240;1188;-70
2021/01/05 07:19:17;;;;;;;;;;;19.90;26.60;;;;;;491736;240;1124;-70
2021/01/05 07:21:18;;;;;;;;;;;19.90;26.70;;;;;;491808;240;962;-70
2021/01/05 07:23:20;;;;;;;;;;;20.00;26.60;;;;;;491818;240;1072;-70
2021/01/05 07:25:21;;;;;;;;;;;20.00;26.60;;;;;;491748;240;1005;-70
2021/01/05 07:27:22;;;;;;;;;;;19.90;26.60;;;;;;491715;240;1096;-70
2021/01/05 07:29:23;;;;;;;;;;;20.00;26.60;;;;;;491777;240;1123;-70
2021/01/05 07:31:25;;;;;;;;;;;19.90;26.60;;;;;;491797;240;2191;-70
2021/01/05 07:33:26;;;;;;;;;;;20.00;26.60;;;;;;491740;240;1195;-70
2021/01/05 07:35:27;;;;;;;;;;;20.00;26.60;;;;;;491814;240;1177;-70
2021/01/05 07:37:29;;;;;;;;;;;19.90;26.70;;;;;;491722;240;986;-70
2021/01/05 07:39:30;;;;;;;;;;;20.00;26.60;;;;;;491730;240;964;-70
2021/01/05 07:41:31;;;;;;;;;;;20.00;26.50;;;;;;491769;240;940;-70
2021/01/05 07:43:33;;;;;;;;;;;20.00;26.60;;;;;;491813;240;954;-70
2021/01/05 07:45:34;;;;;;;;;;;20.00;26.50;;;;;;491712;240;960;-70
2021/01/05 07:47:35;;;;;;;;;;;20.00;26.60;;;;;;491792;240;906;-70
2021/01/05 07:49:37;;;;;;;;;;;20.00;26.60;;;;;;491776;239;1270;-70
2021/01/05 07:51:38;;;;;;;;;;;20.00;26.60;;;;;;491689;240;2195;-70
2021/01/05 07:53:39;;;;;;;;;;;20.00;26.60;;;;;;491749;240;956;-70
2021/01/05 07:55:40;;;;;;;;;;;20.00;26.60;;;;;;491673;240;965;-70
2021/01/05 07:57:42;;;;;;;;;;;20.00;26.60;;;;;;491686;240;941;-70
2021/01/05 07:59:43;;;;;;;;;;;20.00;26.60;;;;;;491673;240;1056;-70
2021/01/05 08:01:44;;;;;;;;;;;19.90;26.60;;;;;;491741;240;1090;-70
2021/01/05 08:03:46;;;;;;;;;;;19.90;26.60;;;;;;491771;240;975;-70
2021/01/05 08:05:47;;;;;;;;;;;19.90;26.70;;;;;;491792;240;1155;-70
2021/01/05 08:07:48;;;;;;;;;;;20.00;26.60;;;;;;491853;240;940;-70
2021/01/05 08:09:51;;;;;;;;;;;20.00;26.60;;;;;;491845;240;924;-70
2021/01/05 08:11:51;;;;;;;;;;;20.00;26.60;;;;;;491765;240;2187;-70
2021/01/05 08:13:52;;;;;;;;;;;20.00;26.60;;;;;;491748;240;926;-70
2021/01/05 08:15:53;;;;;;;;;;;20.00;26.60;;;;;;491726;240;931;-70
2021/01/05 08:17:56;;;;;;;;;;;20.00;26.60;;;;;;491774;240;930;-70
2021/01/05 08:19:57;;;;;;;;;;;20.00;26.60;;;;;;491834;240;1181;-70
2021/01/05 08:21:59;;;;;;;;;;;20.00;26.60;;;;;;491788;240;986;-70
2021/01/05 08:24:00;;;;;;;;;;;20.00;26.60;;;;;;491833;240;958;-70
2021/01/05 08:26:01;;;;;;;;;;;19.90;26.50;;;;;;491815;240;960;-69
2021/01/05 08:28:03;;;;;;;;;;;20.00;26.60;;;;;;491783;240;943;-69
2021/01/05 08:30:04;;;;;;;;;;;19.90;26.60;;;;;;491813;240;1049;-70
2021/01/05 08:32:05;;;;;;;;;;;19.90;26.60;;;;;;491784;240;2164;-70
2021/01/05 08:34:07;;;;;;;;;;;20.00;26.60;;;;;;491797;240;1040;-70
2021/01/05 08:36:08;;;;;;;;;;;19.90;26.60;;;;;;491887;240;1170;-70
2021/01/05 08:38:09;;;;;;;;;;;19.90;26.60;;;;;;491808;240;923;-70
2021/01/05 08:40:11;;;;;;;;;;;20.00;26.50;;;;;;491819;240;1005;-70
2021/01/05 08:42:12;;;;;;;;;;;20.00;26.50;;;;;;491841;240;1045;-70
2021/01/05 08:44:13;;;;;;;;;;;20.00;26.60;;;;;;491794;240;1034;-70
2021/01/05 08:46:14;;;;;;;;;;;19.90;26.60;;;;;;491830;240;1116;-70
2021/01/05 08:48:16;;;;;;;;;;;20.00;26.60;;;;;;491809;240;935;-70
2021/01/05 08:50:17;;;;;;;;;;;19.90;26.60;;;;;;491878;240;1109;-70
2021/01/05 08:52:18;;;;;;;;;;;19.90;26.60;;;;;;491793;240;2191;-70
2021/01/05 08:54:20;;;;;;;;;;;19.90;26.50;;;;;;491830;240;1022;-70
2021/01/05 08:56:21;;;;;;;;;;;19.90;26.50;;;;;;491761;240;1171;-70
2021/01/05 08:58:22;;;;;;;;;;;20.00;26.50;;;;;;491779;240;1055;-70
2021/01/05 09:00:24;;;;;;;;;;;20.00;26.50;;;;;;491817;240;1142;-70
2021/01/05 09:02:25;;;;;;;;;;;20.00;26.50;;;;;;491770;240;921;-70
2021/01/05 09:04:26;;;;;;;;;;;20.00;26.50;;;;;;491830;240;1040;-70
2021/01/05 09:06:28;;;;;;;;;;;20.00;26.50;;;;;;491812;240;1161;-70
2021/01/05 09:08:31;;;;;;;;;;;20.00;26.50;;;;;;491827;240;1227;-70
2021/01/05 09:10:33;;;;;;;;;;;20.00;26.50;;;;;;491779;240;958;-70
2021/01/05 09:12:34;;;;;;;;;;;20.00;26.50;;;;;;491775;240;2133;-70
2021/01/05 09:14:35;;;;;;;;;;;20.00;26.50;;;;;;491802;240;949;-70
2021/01/05 09:16:36;;;;;;;;;;;20.00;26.50;;;;;;491790;240;1087;-70
2021/01/05 09:18:38;;;;;;;;;;;20.00;26.50;;;;;;491742;240;1038;-70
2021/01/05 09:20:39;;;;;;;;;;;20.00;26.50;;;;;;491758;240;1142;-70
2021/01/05 09:22:40;;;;;;;;;;;20.00;26.40;;;;;;491735;240;1038;-70
2021/01/05 09:24:42;;;;;;;;;;;20.00;26.50;;;;;;491797;240;950;-70
2021/01/05 09:26:43;;;;;;;;;;;20.00;26.40;;;;;;491726;240;936;-70
2021/01/05 09:28:44;;;;;;;;;;;20.00;26.40;;;;;;491753;240;917;-70
2021/01/05 09:30:46;;;;;;;;;;;20.00;26.40;;;;;;491737;240;955;-70
2021/01/05 09:32:48;;;;;;;;;;;20.10;26.40;;;;;;491801;240;2187;-70
2021/01/05 09:34:49;;;;;;;;;;;20.10;26.40;;;;;;491842;240;1048;-70
2021/01/05 09:36:51;;;;;;;;;;;20.00;26.40;;;;;;491763;240;1252;-69
2021/01/05 09:38:52;;;;;;;;;;;20.00;26.40;;;;;;491754;240;938;-70
2021/01/05 09:40:53;;;;;;;;;;;20.10;26.40;;;;;;491780;240;968;-70
2021/01/05 09:42:55;;;;;;;;;;;20.00;26.40;;;;;;491687;240;972;-70
2021/01/05 09:44:56;;;;;;;;;;;20.00;26.40;;;;;;491692;240;1138;-70
2021/01/05 09:46:57;;;;;;;;;;;20.00;26.40;;;;;;491714;240;1066;-70
2021/01/05 09:48:58;;;;;;;;;;;20.00;26.40;;;;;;491765;240;906;-70
2021/01/05 09:51:00;;;;;;;;;;;20.00;26.40;;;;;;491749;240;1132;-70
2021/01/05 09:53:01;;;;;;;;;;;20.10;26.40;;;;;;491769;240;2129;-70
2021/01/05 09:55:02;;;;;;;;;;;20.10;26.40;;;;;;491766;240;955;-70
2021/01/05 09:57:04;;;;;;;;;;;20.10;26.40;;;;;;491766;240;1149;-70
2021/01/05 09:59:05;;;;;;;;;;;20.00;26.40;;;;;;491739;240;930;-70
2021/01/05 10:01:06;;;;;;;;;;;19.90;26.40;;;;;;491783;240;1067;-70
2021/01/05 10:03:07;;;;;;;;;;;20.00;26.50;;;;;;491739;240;954;-70
2021/01/05 10:05:09;;;;;;;;;;;20.00;26.40;;;;;;491758;240;1041;-70
2021/01/05 10:07:10;;;;;;;;;;;20.10;26.40;;;;;;491767;240;1122;-70
2021/01/05 10:09:12;;;;;;;;;;;20.10;26.40;;;;;;491719;240;971;-70
2021/01/05 10:11:13;;;;;;;;;;;20.10;26.30;;;;;;491772;240;1272;-70
2021/01/05 10:13:14;;;;;;;;;;;20.20;26.30;;;;;;491731;240;2167;-70
2021/01/05 10:15:15;;;;;;;;;;;20.10;26.30;;;;;;491775;240;1001;-70
2021/01/05 10:17:16;;;;;;;;;;;20.10;26.30;;;;;;491739;240;1037;-70
2021/01/05 10:19:18;;;;;;;;;;;20.10;26.30;;;;;;491800;240;965;-70
2021/01/05 10:21:23;;;;;;;;;;;20.10;26.30;;;;;;491750;240;1157;-70
2021/01/05 10:23:20;;;;;;;;;;;20.10;26.20;;;;;;491739;241;1388;-70
2021/01/05 10:25:22;;;;;;;;;;;20.10;26.30;;;;;;491721;240;1015;-70
2021/01/05 10:27:23;;;;;;;;;;;20.10;26.30;;;;;;491757;240;1012;-70
2021/01/05 10:29:24;;;;;;;;;;;20.00;26.30;;;;;;491779;240;933;-70
2021/01/05 10:31:25;;;;;;;;;;;20.00;26.40;;;;;;491742;240;1203;-70
2021/01/05 10:33:27;;;;;;;;;;;20.00;26.40;;;;;;491776;240;2164;-70
2021/01/05 10:35:28;;;;;;;;;;;20.10;26.40;;;;;;491775;240;976;-70
2021/01/05 10:37:29;;;;;;;;;;;20.10;26.40;;;;;;491773;240;1157;-70
2021/01/05 10:39:31;;;;;;;;;;;20.00;26.40;;;;;;491757;240;1137;-70
2021/01/05 10:41:32;;;;;;;;;;;20.00;26.40;;;;;;491796;240;948;-70
2021/01/05 10:43:33;;;;;;;;;;;20.00;26.40;;;;;;491779;240;963;-70
2021/01/05 10:45:34;;;;;;;;;;;19.90;26.40;;;;;;491699;240;972;-70
2021/01/05 10:47:38;;;;;;;;;;;20.00;26.50;;;;;;491743;240;938;-70
2021/01/05 10:49:37;;;;;;;;;;;20.00;26.40;;;;;;491688;242;1414;-70
2021/01/05 10:51:38;;;;;;;;;;;20.00;26.40;;;;;;491739;240;1204;-70
2021/01/05 10:53:39;;;;;;;;;;;20.00;26.40;;;;;;491685;240;2179;-70
2021/01/05 10:55:41;;;;;;;;;;;20.00;26.40;;;;;;491697;240;1046;-70
2021/01/05 10:57:42;;;;;;;;;;;20.00;26.30;;;;;;491684;240;1034;-70
2021/01/05 10:59:43;;;;;;;;;;;20.00;26.30;;;;;;491749;240;1050;-70
2021/01/05 11:01:45;;;;;;;;;;;20.10;26.30;;;;;;491696;238;1348;-70
2021/01/05 11:03:46;;;;;;;;;;;20.00;26.30;;;;;;491714;240;963;-70
2021/01/05 11:05:47;;;;;;;;;;;20.00;26.30;;;;;;491708;240;963;-70
2021/01/05 11:07:48;;;;;;;;;;;20.00;26.30;;;;;;491749;240;1261;-70
2021/01/05 11:09:50;;;;;;;;;;;20.00;26.30;;;;;;491700;240;947;-70
2021/01/05 11:11:51;;;;;;;;;;;20.00;26.30;;;;;;491654;240;957;-70
2021/01/05 11:13:52;;;;;;;;;;;20.00;26.40;;;;;;491704;240;2180;-70
2021/01/05 11:15:54;;;;;;;;;;;20.00;26.40;;;;;;491695;240;1216;-70
2021/01/05 11:17:55;;;;;;;;;;;19.90;26.40;;;;;;491722;240;953;-70
2021/01/05 11:19:56;;;;;;;;;;;19.90;26.40;;;;;;491698;240;990;-70
2021/01/05 11:21:58;;;;;;;;;;;20.00;26.30;;;;;;491632;240;1070;-70
2021/01/05 11:23:59;;;;;;;;;;;20.00;26.30;;;;;;491764;240;1010;-70
2021/01/05 11:26:00;;;;;;;;;;;20.00;26.40;;;;;;491683;240;1170;-70
2021/01/05 11:28:01;;;;;;;;;;;20.10;26.30;;;;;;491669;240;973;-70
2021/01/05 11:30:03;;;;;;;;;;;20.10;26.20;;;;;;491662;240;974;-70
2021/01/05 11:32:04;;;;;;;;;;;20.10;26.20;;;;;;491658;240;1054;-70
2021/01/05 11:34:05;;;;;;;;;;;20.10;26.30;;;;;;491654;240;2155;-70
2021/01/05 11:36:07;;;;;;;;;;;20.10;26.30;;;;;;491778;240;998;-70
2021/01/05 11:38:08;;;;;;;;;;;20.00;26.30;;;;;;491688;240;1190;-70
2021/01/05 11:40:09;;;;;;;;;;;20.10;26.30;;;;;;491657;240;933;-70
2021/01/05 11:42:11;;;;;;;;;;;20.10;26.30;;;;;;491667;240;1060;-70
2021/01/05 11:44:12;;;;;;;;;;;20.10;26.30;;;;;;491728;240;930;-70
2021/01/05 11:46:13;;;;;;;;;;;20.00;26.30;;;;;;491691;240;1044;-70
2021/01/05 11:48:15;;;;;;;;;;;20.00;26.30;;;;;;491761;240;962;-70
2021/01/05 11:50:16;;;;;;;;;;;20.10;26.30;;;;;;491733;240;951;-70
2021/01/05 11:52:18;;;;;;;;;;;20.10;26.30;;;;;;491695;240;1108;-70
2021/01/05 11:54:20;;;;;;;;;;;20.10;26.20;;;;;;491727;240;2192;-70
2021/01/05 11:56:20;;;;;;;;;;;20.00;26.30;;;;;;491687;242;1941;-70
2021/01/05 11:58:21;;;;;;;;;;;20.10;26.20;;;;;;491754;240;927;-70
2021/01/05 12:00:23;;;;;;;;;;;20.10;26.20;;;;;;491753;240;957;-70